sensor_id;sensor_type;location;lat;lon;timestamp;temperature;humidity
10441;DHT22;5268;49.346;9.522;2023-04-12T03:07:44;8.20;99.90
10441;DHT22;5268;49.346;9.522;2023-04-12T03:12:46;8.20;99.90
10441;DHT22;5268;49.346;9.522;2023-04-12T03:17:48;8.20;99.90
10441;DHT22;5268;49.346;9.522;2023-04-12T03:22:52;8.20;99.90
10441;DHT22;5268;49.346;9.522;2023-04-12T03:27:54;8.20;99.90
10441;DHT22;5268;49.346;9.522;2023-04-12T03:32:55;8.20;99.90
10441;DHT22;5268;49.346;9.522;2023-04-12T03:37:59;8.20;99.90
10441;DHT22;5268;49.346;9.522;2023-04-12T03:43:01;8.20;99.90
10441;DHT22;5268;49.346;9.522;2023-04-12T03:48:03;8.30;99.90
10441;DHT22;5268;49.346;9.522;2023-04-12T03:53:06;8.20;99.90
10441;DHT22;5268;49.346;9.522;2023-04-12T03:58:08;8.30;99.90
10441;DHT22;5268;49.346;9.522;2023-04-12T04:03:12;8.30;99.90
10441;DHT22;5268;49.346;9.522;2023-04-12T04:08:16;8.30;99.90
10441;DHT22;5268;49.346;9.522;2023-04-12T04:13:18;8.30;99.90
10441;DHT22;5268;49.346;9.522;2023-04-12T04:18:20;8.30;99.90
10441;DHT22;5268;49.346;9.522;2023-04-12T04:23:23;8.30;99.90
10441;DHT22;5268;49.346;9.522;2023-04-12T04:28:27;8.30;99.90
10441;DHT22;5268;49.346;9.522;2023-04-12T04:33:29;8.30;99.90
10441;DHT22;5268;49.346;9.522;2023-04-12T04:38:32;8.30;99.90
10441;DHT22;5268;49.346;9.522;2023-04-12T04:43:34;8.20;99.90
10441;DHT22;5268;49.346;9.522;2023-04-12T04:48:39;8.20;99.90
10441;DHT22;5268;49.346;9.522;2023-04-12T04:53:43;8.20;99.90
10441;DHT22;5268;49.346;9.522;2023-04-12T04:58:45;8.20;99.90
10441;DHT22;5268;49.346;9.522;2023-04-12T05:03:46;8.10;99.90
10441;DHT22;5268;49.346;9.522;2023-04-12T05:08:50;8.20;99.90
10441;DHT22;5268;49.346;9.522;2023-04-12T05:13:52;8.20;99.90
10441;DHT22;5268;49.346;9.522;2023-04-12T05:18:54;8.20;99.90
10441;DHT22;5268;49.346;9.522;2023-04-12T05:23:58;8.20;99.90
10441;DHT22;5268;49.346;9.522;2023-04-12T05:29:00;8.10;99.90
10441;DHT22;5268;49.346;9.522;2023-04-12T05:34:02;8.10;99.90
10441;DHT22;5268;49.346;9.522;2023-04-12T05:39:05;8.10;99.90
10441;DHT22;5268;49.346;9.522;2023-04-12T05:44:08;8.10;99.90
10441;DHT22;5268;49.346;9.522;2023-04-12T05:49:10;8.10;99.90
10441;DHT22;5268;49.346;9.522;2023-04-12T05:54:14;8.10;99.90
10441;DHT22;5268;49.346;9.522;2023-04-12T05:59:20;8.10;99.90
10441;DHT22;5268;49.346;9.522;2023-04-12T06:04:22;8.10;99.90
10441;DHT22;5268;49.346;9.522;2023-04-12T06:09:25;8.10;99.90
10441;DHT22;5268;49.346;9.522;2023-04-12T06:14:27;8.10;99.90
10441;DHT22;5268;49.346;9.522;2023-04-12T06:19:29;8.10;99.90
10441;DHT22;5268;49.346;9.522;2023-04-12T06:24:33;8.20;99.90
10441;DHT22;5268;49.346;9.522;2023-04-12T06:29:34;8.10;99.90
10441;DHT22;5268;49.346;9.522;2023-04-12T06:34:36;8.20;99.90
10441;DHT22;5268;49.346;9.522;2023-04-12T06:39:40;8.30;99.90
10441;DHT22;5268;49.346;9.522;2023-04-12T06:44:42;8.30;99.90
10441;DHT22;5268;49.346;9.522;2023-04-12T06:49:44;8.40;99.90
10441;DHT22;5268;49.346;9.522;2023-04-12T06:54:47;8.40;99.90
10441;DHT22;5268;49.346;9.522;2023-04-12T06:59:49;8.50;99.90
10441;DHT22;5268;49.346;9.522;2023-04-12T07:04:52;8.50;99.90
10441;DHT22;5268;49.346;9.522;2023-04-12T07:09:56;8.50;99.90
10441;DHT22;5268;49.346;9.522;2023-04-12T07:14:59;8.60;99.90
10441;DHT22;5268;49.346;9.522;2023-04-12T07:20:01;8.60;99.90
10441;DHT22;5268;49.346;9.522;2023-04-12T07:25:05;8.70;99.90
10441;DHT22;5268;49.346;9.522;2023-04-12T07:30:11;8.70;99.90
10441;DHT22;5268;49.346;9.522;2023-04-12T07:35:13;8.80;99.90
10441;DHT22;5268;49.346;9.522;2023-04-12T07:40:17;8.80;99.90
10441;DHT22;5268;49.346;9.522;2023-04-12T07:45:20;8.90;99.90
10441;DHT22;5268;49.346;9.522;2023-04-12T07:50:22;8.90;99.90
10441;DHT22;5268;49.346;9.522;2023-04-12T07:55:25;8.90;99.90
10441;DHT22;5268;49.346;9.522;2023-04-12T08:00:27;9.00;99.90
10441;DHT22;5268;49.346;9.522;2023-04-12T08:05:32;9.00;99.90
10441;DHT22;5268;49.346;9.522;2023-04-12T08:10:36;9.10;99.90
10441;DHT22;5268;49.346;9.522;2023-04-12T08:15:38;9.20;99.90
10441;DHT22;5268;49.346;9.522;2023-04-12T08:20:40;9.20;99.90
10441;DHT22;5268;49.346;9.522;2023-04-12T08:25:45;9.30;99.90
10441;DHT22;5268;49.346;9.522;2023-04-12T08:30:47;9.30;99.90
10441;DHT22;5268;49.346;9.522;2023-04-12T08:35:48;9.30;99.90
10441;DHT22;5268;49.346;9.522;2023-04-12T08:40:53;9.40;99.90
10441;DHT22;5268;49.346;9.522;2023-04-12T08:45:57;9.50;99.90
10441;DHT22;5268;49.346;9.522;2023-04-12T08:51:00;9.60;99.90
10441;DHT22;5268;49.346;9.522;2023-04-12T08:56:06;9.70;99.90
10441;DHT22;5268;49.346;9.522;2023-04-12T09:01:10;9.70;99.90
10441;DHT22;5268;49.346;9.522;2023-04-12T09:06:14;9.80;99.90
10441;DHT22;5268;49.346;9.522;2023-04-12T09:11:25;9.90;99.90
10441;DHT22;5268;49.346;9.522;2023-04-12T09:16:38;10.00;99.90
10441;DHT22;5268;49.346;9.522;2023-04-12T09:21:51;10.00;99.90
10441;DHT22;5268;49.346;9.522;2023-04-12T09:27:02;10.10;99.90
10441;DHT22;5268;49.346;9.522;2023-04-12T09:32:05;10.20;99.90
10441;DHT22;5268;49.346;9.522;2023-04-12T09:37:14;10.40;99.90
10441;DHT22;5268;49.346;9.522;2023-04-12T09:42:18;10.50;99.90
10441;DHT22;5268;49.346;9.522;2023-04-12T09:47:20;10.70;99.90
10441;DHT22;5268;49.346;9.522;2023-04-12T09:52:22;10.80;99.90
10441;DHT22;5268;49.346;9.522;2023-04-12T09:57:25;10.90;99.90
10441;DHT22;5268;49.346;9.522;2023-04-12T10:02:28;10.90;99.90
10441;DHT22;5268;49.346;9.522;2023-04-12T10:07:30;11.00;99.90
10441;DHT22;5268;49.346;9.522;2023-04-12T10:12:35;11.00;99.90
10441;DHT22;5268;49.346;9.522;2023-04-12T10:17:40;11.10;99.90
10441;DHT22;5268;49.346;9.522;2023-04-12T10:22:46;11.00;99.90
10441;DHT22;5268;49.346;9.522;2023-04-12T10:27:49;11.10;99.90
10441;DHT22;5268;49.346;9.522;2023-04-12T10:33:10;11.10;99.90
10441;DHT22;5268;49.346;9.522;2023-04-12T10:38:14;11.20;99.90
10441;DHT22;5268;49.346;9.522;2023-04-12T10:43:26;11.30;99.90
10441;DHT22;5268;49.346;9.522;2023-04-12T10:48:30;11.40;99.90
10441;DHT22;5268;49.346;9.522;2023-04-12T10:53:32;11.60;99.90
10441;DHT22;5268;49.346;9.522;2023-04-12T10:58:55;11.70;99.90
10441;DHT22;5268;49.346;9.522;2023-04-12T11:04:14;11.80;99.90
10441;DHT22;5268;49.346;9.522;2023-04-12T11:09:21;11.90;99.90
10441;DHT22;5268;49.346;9.522;2023-04-12T11:14:27;12.00;99.90
10441;DHT22;5268;49.346;9.522;2023-04-12T11:19:31;12.00;99.90
10441;DHT22;5268;49.346;9.522;2023-04-12T11:24:36;12.10;99.90
10441;DHT22;5268;49.346;9.522;2023-04-12T11:29:39;12.10;99.90
10441;DHT22;5268;49.346;9.522;2023-04-12T11:34:44;12.20;99.90
10441;DHT22;5268;49.346;9.522;2023-04-12T11:39:50;12.20;99.90
10441;DHT22;5268;49.346;9.522;2023-04-12T11:44:53;12.30;99.90
10441;DHT22;5268;49.346;9.522;2023-04-12T11:49:57;12.30;99.90
10441;DHT22;5268;49.346;9.522;2023-04-12T11:55:00;12.40;99.90
10441;DHT22;5268;49.346;9.522;2023-04-12T12:00:07;12.50;99.90
10441;DHT22;5268;49.346;9.522;2023-04-12T12:05:09;12.60;99.90
10441;DHT22;5268;49.346;9.522;2023-04-12T12:10:12;12.70;99.90
10441;DHT22;5268;49.346;9.522;2023-04-12T12:15:16;12.70;99.90
10441;DHT22;5268;49.346;9.522;2023-04-12T12:20:19;12.70;99.90
10441;DHT22;5268;49.346;9.522;2023-04-12T12:25:22;12.70;99.90
10441;DHT22;5268;49.346;9.522;2023-04-12T12:30:29;12.80;99.90
10441;DHT22;5268;49.346;9.522;2023-04-12T12:35:33;12.90;99.90
10441;DHT22;5268;49.346;9.522;2023-04-12T12:40:35;13.00;99.90
10441;DHT22;5268;49.346;9.522;2023-04-12T12:45:40;13.10;99.90
10441;DHT22;5268;49.346;9.522;2023-04-12T12:50:42;13.10;99.90
10441;DHT22;5268;49.346;9.522;2023-04-12T12:55:44;13.20;99.90
10441;DHT22;5268;49.346;9.522;2023-04-12T13:00:47;13.20;99.90
10441;DHT22;5268;49.346;9.522;2023-04-12T13:05:49;13.20;99.90
10441;DHT22;5268;49.346;9.522;2023-04-12T13:10:51;13.20;99.90
10441;DHT22;5268;49.346;9.522;2023-04-12T13:15:56;13.20;99.90
10441;DHT22;5268;49.346;9.522;2023-04-12T13:20:58;13.30;99.90
10441;DHT22;5268;49.346;9.522;2023-04-12T13:26:00;13.30;99.90
10441;DHT22;5268;49.346;9.522;2023-04-12T13:31:04;13.40;99.90
10441;DHT22;5268;49.346;9.522;2023-04-12T13:36:06;13.40;99.90
10441;DHT22;5268;49.346;9.522;2023-04-12T13:41:08;13.40;99.90
10441;DHT22;5268;49.346;9.522;2023-04-12T13:46:12;13.40;99.90
10441;DHT22;5268;49.346;9.522;2023-04-12T13:51:14;13.50;99.90
10441;DHT22;5268;49.346;9.522;2023-04-12T13:56:16;13.50;99.90
10441;DHT22;5268;49.346;9.522;2023-04-12T14:01:19;13.60;99.90
10441;DHT22;5268;49.346;9.522;2023-04-12T14:06:23;13.70;99.90
10441;DHT22;5268;49.346;9.522;2023-04-12T14:11:25;13.80;99.90
10441;DHT22;5268;49.346;9.522;2023-04-12T14:16:29;13.90;99.90
10441;DHT22;5268;49.346;9.522;2023-04-12T14:21:31;13.90;99.90
10441;DHT22;5268;49.346;9.522;2023-04-12T14:26:33;13.90;99.90
10441;DHT22;5268;49.346;9.522;2023-04-12T14:31:36;13.90;99.90
10441;DHT22;5268;49.346;9.522;2023-04-12T14:36:38;13.90;99.90
10441;DHT22;5268;49.346;9.522;2023-04-12T14:41:40;13.90;99.90
10441;DHT22;5268;49.346;9.522;2023-04-12T14:46:44;14.00;99.90
10441;DHT22;5268;49.346;9.522;2023-04-12T14:51:46;14.00;99.90
10441;DHT22;5268;49.346;9.522;2023-04-12T14:56:48;14.10;99.90
10441;DHT22;5268;49.346;9.522;2023-04-12T15:01:52;14.10;99.90
10441;DHT22;5268;49.346;9.522;2023-04-12T15:06:54;14.10;99.90
10441;DHT22;5268;49.346;9.522;2023-04-12T15:11:56;14.10;99.90
10441;DHT22;5268;49.346;9.522;2023-04-12T15:17:02;14.00;99.90
10441;DHT22;5268;49.346;9.522;2023-04-12T15:22:04;13.80;99.90
10441;DHT22;5268;49.346;9.522;2023-04-12T15:27:06;13.60;99.90
10441;DHT22;5268;49.346;9.522;2023-04-12T15:32:10;13.40;99.90
10441;DHT22;5268;49.346;9.522;2023-04-12T15:37:12;13.20;99.90
10441;DHT22;5268;49.346;9.522;2023-04-12T15:42:15;13.00;99.90
10441;DHT22;5268;49.346;9.522;2023-04-12T15:47:19;12.80;99.90
10441;DHT22;5268;49.346;9.522;2023-04-12T15:52:21;12.60;99.90
10441;DHT22;5268;49.346;9.522;2023-04-12T15:57:23;12.40;99.90
10441;DHT22;5268;49.346;9.522;2023-04-12T16:02:28;12.30;99.90
10441;DHT22;5268;49.346;9.522;2023-04-12T16:07:30;12.20;99.90
10441;DHT22;5268;49.346;9.522;2023-04-12T16:12:33;12.10;99.90
10441;DHT22;5268;49.346;9.522;2023-04-12T16:17:36;12.10;99.90
10441;DHT22;5268;49.346;9.522;2023-04-12T16:22:39;12.20;99.90
10441;DHT22;5268;49.346;9.522;2023-04-12T16:27:42;12.20;99.90
10441;DHT22;5268;49.346;9.522;2023-04-12T16:32:46;12.20;99.90
10441;DHT22;5268;49.346;9.522;2023-04-12T16:37:48;12.20;99.90
10441;DHT22;5268;49.346;9.522;2023-04-12T16:42:50;12.20;99.90
10441;DHT22;5268;49.346;9.522;2023-04-12T16:47:53;12.20;99.90
10441;DHT22;5268;49.346;9.522;2023-04-12T16:52:55;12.20;99.90
10441;DHT22;5268;49.346;9.522;2023-04-12T16:57:58;12.20;99.90
10441;DHT22;5268;49.346;9.522;2023-04-12T17:03:01;12.10;99.90
10441;DHT22;5268;49.346;9.522;2023-04-12T17:08:03;12.10;99.90
10441;DHT22;5268;49.346;9.522;2023-04-12T17:13:06;12.00;99.90
10441;DHT22;5268;49.346;9.522;2023-04-12T17:18:10;12.00;99.90
10441;DHT22;5268;49.346;9.522;2023-04-12T17:23:12;12.00;99.90
10441;DHT22;5268;49.346;9.522;2023-04-12T17:28:15;11.90;99.90
10441;DHT22;5268;49.346;9.522;2023-04-12T17:33:19;11.80;99.90
10441;DHT22;5268;49.346;9.522;2023-04-12T17:38:21;11.80;99.90
10441;DHT22;5268;49.346;9.522;2023-04-12T17:43:23;11.70;99.90
10441;DHT22;5268;49.346;9.522;2023-04-12T17:48:27;11.70;99.90
10441;DHT22;5268;49.346;9.522;2023-04-12T17:53:30;11.60;99.90
10441;DHT22;5268;49.346;9.522;2023-04-12T17:58:32;11.50;99.90
10441;DHT22;5268;49.346;9.522;2023-04-12T18:03:35;11.50;99.90
10441;DHT22;5268;49.346;9.522;2023-04-12T18:08:38;11.50;99.90
10441;DHT22;5268;49.346;9.522;2023-04-12T18:13:40;11.40;99.90
10441;DHT22;5268;49.346;9.522;2023-04-12T18:18:43;11.40;99.90
10441;DHT22;5268;49.346;9.522;2023-04-12T18:23:46;11.30;99.90
10441;DHT22;5268;49.346;9.522;2023-04-12T18:28:48;11.30;99.90
10441;DHT22;5268;49.346;9.522;2023-04-12T18:33:51;11.20;99.90
10441;DHT22;5268;49.346;9.522;2023-04-12T18:38:53;11.20;99.90
10441;DHT22;5268;49.346;9.522;2023-04-12T18:43:55;11.20;99.90
10441;DHT22;5268;49.346;9.522;2023-04-12T18:48:59;11.10;99.90
10441;DHT22;5268;49.346;9.522;2023-04-12T18:54:01;11.10;99.90
10441;DHT22;5268;49.346;9.522;2023-04-12T18:59:04;11.10;99.90
10441;DHT22;5268;49.346;9.522;2023-04-12T19:04:08;11.00;99.90
10441;DHT22;5268;49.346;9.522;2023-04-12T19:09:09;11.00;99.90
10441;DHT22;5268;49.346;9.522;2023-04-12T19:14:12;11.00;99.90
10441;DHT22;5268;49.346;9.522;2023-04-12T19:19:15;10.90;99.90
10441;DHT22;5268;49.346;9.522;2023-04-12T19:24:17;10.90;99.90
10441;DHT22;5268;49.346;9.522;2023-04-12T19:29:19;10.80;99.90
10441;DHT22;5268;49.346;9.522;2023-04-12T19:34:23;10.80;99.90
10441;DHT22;5268;49.346;9.522;2023-04-12T19:39:26;10.70;99.90
10441;DHT22;5268;49.346;9.522;2023-04-12T19:44:29;10.70;99.90
10441;DHT22;5268;49.346;9.522;2023-04-12T19:49:32;10.60;99.90
10441;DHT22;5268;49.346;9.522;2023-04-12T19:54:34;10.60;99.90
10441;DHT22;5268;49.346;9.522;2023-04-12T19:59:37;10.60;99.90
10441;DHT22;5268;49.346;9.522;2023-04-12T20:04:40;10.50;99.90
10441;DHT22;5268;49.346;9.522;2023-04-12T20:09:42;10.50;99.90
10441;DHT22;5268;49.346;9.522;2023-04-12T20:14:44;10.50;99.90
10441;DHT22;5268;49.346;9.522;2023-04-12T20:19:51;10.40;99.90
10441;DHT22;5268;49.346;9.522;2023-04-12T20:24:53;10.40;99.90
10441;DHT22;5268;49.346;9.522;2023-04-12T20:29:56;10.40;99.90
10441;DHT22;5268;49.346;9.522;2023-04-12T20:35:01;10.40;99.90
10441;DHT22;5268;49.346;9.522;2023-04-12T20:40:04;10.30;99.90
10441;DHT22;5268;49.346;9.522;2023-04-12T20:45:09;10.30;99.90
10441;DHT22;5268;49.346;9.522;2023-04-12T20:50:13;10.30;99.90
10441;DHT22;5268;49.346;9.522;2023-04-12T20:55:15;10.20;99.90
10441;DHT22;5268;49.346;9.522;2023-04-12T21:00:17;10.20;99.90
10441;DHT22;5268;49.346;9.522;2023-04-12T21:05:24;10.20;99.90
10441;DHT22;5268;49.346;9.522;2023-04-12T21:10:26;10.20;99.90
10441;DHT22;5268;49.346;9.522;2023-04-12T21:15:28;10.20;99.90
10441;DHT22;5268;49.346;9.522;2023-04-12T21:20:36;10.20;99.90
10441;DHT22;5268;49.346;9.522;2023-04-12T21:25:38;10.20;99.90
10441;DHT22;5268;49.346;9.522;2023-04-12T21:30:40;10.10;99.90
10441;DHT22;5268;49.346;9.522;2023-04-12T21:35:46;10.10;99.90
10441;DHT22;5268;49.346;9.522;2023-04-12T21:40:48;10.00;99.90
10441;DHT22;5268;49.346;9.522;2023-04-12T21:45:50;10.00;99.90
10441;DHT22;5268;49.346;9.522;2023-04-12T21:50:53;9.90;99.90
